Date,TemperatureHighF,TemperatureAvgF,TemperatureLowF,DewpointHighF,DewpointAvgF,DewpointLowF,HumidityHigh,HumidityAvg,HumidityLow,PressureMaxIn,PressureMinIn,WindSpeedMaxMPH,WindSpeedAvgMPH,GustSpeedMaxMPH,PrecipitationSumIn
2013-1-1,51.0,42.8,38.0,37.0,32.3,28.0,83,67,45,29.80,29.71,14,2,0,0.00
2013-1-2,59.0,49.6,40.0,31.0,24.4,18.0,66,38,27,29.78,29.67,14,2,0,0.00
2013-1-3,60.0,51.0,45.0,33.0,24.0,16.0,60,36,24,29.78,29.68,3,0,0,0.00
2013-1-4,62.0,51.3,44.0,39.0,29.3,19.0,76,44,24,29.79,29.72,4,0,0,0.00
2013-1-5,55.0,44.9,40.0,45.0,40.2,34.0,94,84,65,29.80,29.65,10,1,0,0.00
2013-1-6,43.0,39.8,37.0,41.0,38.2,35.0,95,94,92,29.77,29.58,14,4,0,0.00
2013-1-7,53.0,45.7,37.0,41.0,37.9,34.0,95,76,51,29.82,29.72,10,1,0,0.00
2013-1-8,63.0,54.7,46.0,45.0,41.5,38.0,80,62,49,29.76,29.66,6,2,0,0.00
2013-1-9,55.0,47.5,37.0,45.0,40.2,35.0,96,78,53,29.67,29.56,10,2,0,0.00
2013-1-10,39.0,37.1,33.0,37.0,34.2,31.0,95,89,80,29.77,29.62,12,6,0,0.00
2013-1-11,45.0,38.8,35.0,38.0,34.7,30.0,95,85,73,29.83,29.70,12,5,0,0.00
2013-1-12,44.0,36.9,32.0,37.0,31.6,26.0,97,82,55,29.80,29.70,5,1,0,0.00
2013-1-13,44.0,37.0,31.0,31.0,22.2,14.0,82,56,34,29.80,29.71,8,2,0,0.00
2013-1-14,44.0,37.7,31.0,21.0,16.3,11.0,53,42,35,29.96,29.77,7,2,0,0.00
2013-1-15,52.0,43.0,36.0,28.0,21.3,13.0,61,42,31,30.02,29.94,5,1,0,0.00
2013-1-16,55.0,48.1,41.0,35.0,30.2,25.0,60,50,40,29.96,29.78,6,1,0,0.00
2013-1-17,69.0,59.4,52.0,39.0,31.2,24.0,43,35,24,29.78,29.67,5,1,0,0.00
2013-1-18,70.0,59.5,51.0,34.0,29.0,22.0,45,32,23,29.72,29.66,6,0,0,0.00
2013-1-19,70.0,59.1,53.0,34.0,25.0,21.0,35,27,19,29.74,29.68,9,2,0,0.00
2013-1-20,70.0,60.7,52.0,30.0,21.3,15.0,30,22,16,29.73,29.64,14,4,0,0.00
2013-1-21,70.0,62.1,55.0,31.0,18.3,7.0,26,19,12,29.69,29.60,12,4,0,0.00
2013-1-22,74.0,61.7,57.0,35.0,21.7,13.0,33,22,16,29.63,29.55,9,1,0,0.00
2013-1-23,63.0,56.7,47.0,42.0,29.9,19.0,77,39,20,29.58,29.50,17,3,0,0.00
2013-1-24,54.0,51.0,46.0,52.0,47.7,39.0,96,89,62,29.73,29.55,11,1,0,0.00
2013-1-25,63.0,54.9,51.0,56.0,52.2,50.0,97,91,76,29.73,29.59,12,1,0,0.00
2013-1-26,52.0,47.0,40.0,51.0,45.1,38.0,97,93,80,29.65,29.54,7,2,0,0.00
2013-1-27,46.0,40.7,38.0,40.0,38.0,37.0,96,90,73,29.74,29.64,11,4,0,0.00
2013-1-28,46.0,41.1,37.0,41.0,38.6,35.0,96,91,80,29.87,29.72,10,4,0,0.00
2013-1-29,52.0,44.3,38.0,44.0,39.9,37.0,97,85,66,29.91,29.83,5,0,0,0.00
2013-1-30,63.0,54.3,47.0,45.0,40.4,36.0,73,60,46,29.91,29.80,6,0,0,0.00
2013-1-31,64.0,57.1,50.0,44.0,39.1,30.0,68,52,32,29.79,29.71,3,0,0,0.00
2013-2-1,70.0,57.7,52.0,46.0,38.2,33.0,64,49,35,29.75,29.66,3,0,0,0.00
2013-2-2,64.0,55.9,43.0,47.0,38.2,32.0,90,52,35,29.80,29.73,5,0,0,0.00
2013-2-3,58.0,44.3,40.0,51.0,41.8,37.0,97,91,66,29.78,29.69,8,1,0,0.00
2013-2-4,65.0,55.4,49.0,46.0,37.8,29.0,73,53,31,29.72,29.61,8,1,0,0.00
2013-2-5,48.0,43.0,37.0,44.0,40.2,35.0,96,90,68,29.72,29.58,3,0,0,0.00
2013-2-6,53.0,43.0,37.0,43.0,38.1,32.0,95,84,56,29.76,29.69,5,1,0,0.00
2013-2-7,49.0,41.5,37.0,43.0,37.5,35.0,95,86,65,29.75,29.58,6,1,0,0.00
2013-2-8,41.0,37.5,32.0,38.0,35.4,30.0,96,92,80,29.58,29.49,7,2,0,0.00
2013-2-9,51.0,41.0,36.0,37.0,32.2,26.0,94,73,42,29.67,29.57,4,1,0,0.00
2013-2-10,55.0,45.4,37.0,35.0,30.0,25.0,76,55,39,29.67,29.59,5,0,0,0.00
2013-2-11,54.0,46.7,41.0,36.0,31.1,27.0,68,55,38,29.80,29.62,5,1,0,0.00
2013-2-12,55.0,47.2,41.0,42.0,32.1,26.0,71,56,42,29.91,29.80,4,0,0,0.00
2013-2-13,57.0,50.0,43.0,43.0,35.7,28.0,69,58,44,29.88,29.77,4,0,0,0.00
2013-2-14,64.0,55.7,47.0,42.0,37.3,33.0,64,50,36,29.77,29.70,8,1,0,0.00
2013-2-15,71.0,62.1,54.0,40.0,33.4,28.0,48,34,27,29.79,29.73,10,2,0,0.00
2013-2-16,70.0,60.5,51.0,38.0,31.2,24.0,51,33,24,29.76,29.59,9,2,0,0.00
2013-2-17,57.0,47.7,40.0,45.0,37.9,28.0,95,70,45,29.60,29.52,4,1,0,0.00
2013-2-18,43.0,40.1,37.0,41.0,37.4,34.0,95,90,74,29.62,29.54,3,0,0,0.00
2013-2-19,44.0,37.5,33.0,43.0,35.5,31.0,96,93,85,29.56,29.34,11,4,0,0.00
2013-2-20,48.0,39.5,33.0,42.0,36.4,31.0,95,89,76,29.67,29.39,7,3,0,0.00
2013-2-21,49.0,42.1,38.0,39.0,36.2,33.0,95,81,61,29.75,29.62,11,4,0,0.00
2013-2-22,57.0,47.3,39.0,40.0,32.6,28.0,91,58,39,29.83,29.74,6,1,0,0.00
2013-2-23,49.0,42.4,39.0,42.0,38.4,33.0,95,86,72,29.82,29.71,10,3,0,0.00
2013-2-24,55.0,45.2,39.0,35.0,28.1,22.0,78,53,31,29.82,29.72,8,2,0,0.00
2013-2-25,59.0,48.7,41.0,42.0,32.5,24.0,87,55,37,29.83,29.73,7,1,0,0.00
2013-2-26,60.0,52.4,45.0,37.0,27.3,21.0,73,39,24,29.77,29.69,8,2,0,0.00
2013-2-27,67.0,56.3,48.0,39.0,24.8,18.0,46,30,18,29.91,29.76,5,1,0,0.00
2013-2-28,63.0,54.8,47.0,48.0,41.7,31.0,81,62,45,29.98,29.90,7,1,0,0.00
2013-3-1,69.0,60.9,54.0,49.0,45.2,33.0,74,57,40,29.96,29.78,9,3,0,0.00
2013-3-2,68.0,61.4,53.0,48.0,37.2,28.0,65,41,28,29.78,29.61,8,1,0,0.00
2013-3-3,57.0,51.3,41.0,46.0,41.1,35.0,95,69,45,29.65,29.60,8,1,0,0.00
2013-3-4,55.0,44.2,37.0,48.0,41.5,36.0,97,90,74,29.70,29.62,5,1,0,0.00
2013-3-5,53.0,44.5,37.0,44.0,38.3,29.0,97,80,48,29.65,29.48,20,4,0,0.00
2013-3-6,51.0,45.4,42.0,43.0,40.3,36.0,95,83,60,29.65,29.48,19,6,0,0.00
2013-3-18,66.0,57.6,45.0,49.0,37.1,24.0,79,48,30,29.67,29.60,3,0,0,0.00
2013-3-19,68.0,57.2,45.0,46.0,37.3,21.0,84,49,28,29.71,29.60,19,2,0,0.00
2013-3-20,59.0,53.5,49.0,51.0,46.5,42.0,94,77,57,29.68,29.62,2,0,0,0.00
2013-3-21,57.0,46.8,40.0,48.0,42.5,36.0,97,86,64,29.67,29.58,5,1,0,0.00
2013-3-22,62.0,50.5,42.0,38.0,30.0,23.0,82,47,24,29.65,29.58,10,2,0,0.00
2013-3-23,65.0,53.2,46.0,41.0,27.6,17.0,67,38,23,29.67,29.60,4,1,0,0.00
2013-3-24,67.0,56.4,47.0,46.0,34.2,25.0,57,43,35,29.64,29.54,5,1,0,0.00
2013-3-25,64.0,51.9,38.0,48.0,39.9,33.0,94,65,47,29.55,29.50,4,1,0,0.00
2013-3-26,62.0,49.4,39.0,48.0,40.6,30.0,95,73,41,29.56,29.51,5,1,0,0.00
2013-3-27,65.0,51.7,43.0,53.0,45.5,39.0,92,79,62,29.59,29.51,11,2,0,0.00
2013-3-28,62.0,52.5,48.0,53.0,48.5,45.0,96,87,68,29.64,29.56,5,0,0,0.00
2013-3-29,68.0,57.9,49.0,52.0,48.3,44.0,91,72,52,29.63,29.58,7,1,0,0.00
2013-3-30,62.0,53.6,46.0,53.0,47.1,-99.9,95,82,68,29.61,29.55,10,1,0,0.00
2013-3-31,63.0,53.2,47.0,50.0,45.3,42.0,91,75,58,29.63,29.56,12,5,0,0.00
2013-4-1,58.0,50.8,47.0,53.0,47.8,44.0,96,89,79,29.71,29.59,5,1,0,0.00
2013-4-2,62.0,52.6,43.0,53.0,47.0,42.0,96,82,61,29.72,29.66,6,1,0,0.00
2013-4-3,71.0,58.5,49.0,54.0,48.0,40.0,90,69,49,29.68,29.55,8,1,0,0.00
2013-4-4,66.0,55.0,47.0,58.0,49.1,39.0,96,82,57,29.67,29.55,9,2,0,0.00
2013-4-5,59.0,51.5,46.0,52.0,47.6,43.0,96,87,72,29.76,29.67,5,1,0,0.00
2013-4-6,62.0,51.4,44.0,53.0,46.9,42.0,95,86,68,29.77,29.70,5,1,0,0.00
2013-4-7,64.0,52.2,43.0,53.0,45.3,38.0,94,78,59,29.73,29.48,9,1,0,0.00
2013-4-8,53.0,44.4,39.0,46.0,39.7,37.0,95,84,59,29.59,29.43,16,9,0,0.00
2013-4-9,61.0,51.8,39.0,44.0,38.0,31.0,93,61,35,29.67,29.57,11,4,0,0.00
2013-4-10,77.0,63.0,50.0,49.0,39.9,30.0,81,45,33,29.74,29.63,10,2,0,0.00
2013-4-11,59.0,48.7,41.0,50.0,43.4,37.0,97,83,57,29.63,29.46,7,2,0,0.00
2013-4-12,70.0,54.9,41.0,51.0,42.6,34.0,97,67,34,29.50,29.42,7,1,0,0.00
2013-4-13,64.0,48.3,40.0,52.0,41.2,35.0,94,77,53,29.50,29.41,9,2,0,0.00
2013-4-14,60.0,48.5,37.0,46.0,37.9,32.0,95,69,43,29.52,29.45,8,2,0,0.00
2013-4-15,47.0,42.2,38.0,45.0,39.1,34.0,96,89,73,29.55,29.43,14,6,0,0.00
2013-4-16,53.0,44.2,34.0,39.0,34.2,29.0,95,70,48,29.70,29.54,10,3,0,0.00
2013-4-17,58.0,49.3,43.0,36.0,31.4,28.0,60,51,36,29.81,29.70,12,5,0,0.00
2013-4-18,66.0,56.3,47.0,38.0,29.2,23.0,51,36,26,29.83,29.78,8,2,0,0.00
2013-4-19,74.0,62.1,53.0,49.0,38.7,30.0,66,42,31,29.79,29.64,6,2,0,0.00
2013-4-20,74.0,60.8,52.0,49.0,42.9,34.0,68,53,35,29.64,29.56,6,1,0,0.00
2013-4-21,80.0,68.7,60.0,45.0,39.5,34.0,50,35,21,29.58,29.51,10,2,0,0.00
2013-4-22,79.0,70.2,62.0,51.0,42.5,35.0,46,37,31,29.52,29.41,4,1,0,0.00
2013-4-23,70.0,62.7,51.0,50.0,42.1,32.0,86,50,29,29.47,29.38,6,1,0,0.00
2013-4-24,61.0,54.7,46.0,50.0,44.6,31.0,94,70,34,29.51,29.37,7,1,0,0.00
2013-4-25,62.0,51.0,45.0,52.0,46.7,42.0,97,86,65,29.70,29.51,4,1,0,0.00
2013-4-26,73.0,59.0,45.0,55.0,44.4,34.0,94,60,38,29.77,29.68,3,0,0,0.00
2013-4-27,79.0,68.2,58.0,53.0,41.8,31.0,52,39,26,29.75,29.62,3,0,0,0.00
2013-4-28,79.0,70.4,60.0,50.0,38.0,24.0,41,31,21,29.62,29.45,2,0,0,0.00
2013-4-29,82.0,71.4,59.0,52.0,44.9,38.0,59,39,28,29.45,29.33,6,2,0,0.00
2013-4-30,72.0,61.6,44.0,50.0,41.9,25.0,90,51,23,29.42,29.30,3,0,0,0.00
2013-5-1,72.0,65.6,56.0,51.0,37.0,22.0,54,36,20,29.64,29.42,0,0,0,0.00
2013-5-2,85.0,73.5,64.0,47.0,37.1,28.0,37,27,17,29.69,29.63,0,0,0,0.00
2013-5-3,85.0,72.2,61.0,41.0,31.5,21.0,32,23,18,29.65,29.36,4,0,0,0.00
2013-5-4,75.0,67.0,46.0,50.0,39.6,23.0,93,41,19,29.36,29.12,5,1,0,0.00
2013-5-5,65.0,53.1,45.0,48.0,44.5,42.0,95,74,48,29.35,29.15,15,4,0,0.00
2013-5-6,64.0,55.0,49.0,48.0,44.4,42.0,90,69,49,29.52,29.35,13,4,0,0.00
2013-5-7,65.0,55.1,47.0,51.0,46.8,43.0,93,74,56,29.61,29.50,8,2,0,0.00
2013-5-8,63.0,52.8,44.0,52.0,46.3,42.0,92,79,60,29.70,29.60,5,1,0,0.00
2013-5-9,65.0,51.8,43.0,53.0,46.0,39.0,96,81,62,29.75,29.66,7,1,0,0.00
2013-5-10,75.0,62.2,47.0,55.0,47.2,-99.9,95,63,45,29.75,29.67,5,1,0,0.00
2013-5-11,85.0,72.1,62.0,55.0,44.6,-99.9,61,40,25,29.69,29.61,5,1,0,0.00
2013-5-12,81.0,71.3,61.0,55.0,45.3,32.0,51,40,26,29.66,29.58,7,2,0,0.00
2013-5-13,80.0,64.7,50.0,54.0,45.3,38.0,80,51,28,29.62,29.53,9,1,0,0.00
2013-5-14,65.0,52.5,44.0,51.0,45.8,39.0,96,79,47,29.65,29.51,7,2,0,0.00
2013-5-15,63.0,51.4,42.0,47.0,42.4,35.0,94,73,43,29.67,29.61,7,2,0,0.00
2013-5-16,64.0,50.1,46.0,52.0,31.5,-99.9,97,82,54,29.64,29.57,6,2,0,0.00
2013-5-17,64.0,51.8,43.0,48.0,39.3,-99.9,91,71,47,29.67,29.55,6,1,0,0.00
2013-5-18,68.0,52.8,41.0,49.0,44.3,39.0,94,75,47,29.72,29.65,6,2,0,0.00
2013-5-19,73.0,59.2,43.0,49.0,43.0,36.0,95,59,39,29.71,29.57,9,2,0,0.00
2013-5-20,83.0,70.3,61.0,47.0,38.3,33.0,47,32,22,29.58,29.52,8,2,0,0.00
2013-5-21,64.0,53.1,40.0,48.0,39.8,17.0,91,63,17,29.58,29.45,9,3,0,0.00
2013-5-22,57.0,45.9,38.0,41.0,37.0,30.0,94,74,38,29.57,29.51,8,3,0,0.00
2013-5-23,54.0,45.4,40.0,43.0,39.2,37.0,93,80,58,29.62,29.54,10,4,0,0.00
2013-5-24,61.0,49.0,39.0,46.0,39.4,32.0,93,71,47,29.60,29.55,6,2,0,0.00
2013-5-25,59.0,47.8,40.0,46.0,42.3,38.0,95,83,61,29.67,29.58,6,2,0,0.00
2013-5-26,65.0,53.5,45.0,51.0,48.0,43.0,97,83,52,29.72,29.66,7,2,0,0.00
2013-5-27,64.0,53.5,45.0,52.0,48.9,44.0,96,85,65,29.72,29.61,4,1,0,0.00
2013-5-28,65.0,55.6,48.0,58.0,51.1,43.0,97,86,59,29.61,29.50,7,2,0,0.00
2013-5-29,67.0,55.3,44.0,55.0,46.8,37.0,94,74,54,29.54,29.49,6,2,0,0.00
2013-5-30,71.0,55.8,40.0,47.0,40.3,29.0,95,59,30,29.58,29.49,7,1,0,0.00
2013-5-31,80.0,67.6,54.0,47.0,35.8,20.0,44,31,21,29.57,29.50,7,2,0,0.00
2013-6-1,87.0,75.8,67.0,49.0,43.8,39.0,41,32,25,29.50,29.33,6,1,0,0.00
2013-6-2,70.0,58.9,46.0,52.0,46.2,39.0,94,65,36,29.33,29.26,3,0,0,0.00
2013-6-3,68.0,54.1,43.0,54.0,48.6,42.0,97,83,61,29.44,29.30,6,1,0,0.00
2013-6-4,67.0,55.7,48.0,54.0,50.0,46.0,92,82,64,29.53,29.41,5,1,0,0.00
2013-6-5,67.0,55.4,45.0,54.0,49.7,43.0,97,82,60,29.55,29.51,2,0,0,0.00
2013-6-6,72.0,59.7,46.0,55.0,50.5,44.0,96,73,55,29.52,29.45,2,0,0,0.00
2013-6-7,93.0,77.6,61.0,59.0,51.6,43.0,69,42,27,29.46,29.31,0,0,0,0.00
2013-6-8,92.0,78.2,55.0,60.0,50.3,32.0,89,42,18,29.33,29.25,0,0,0,0.00
2013-6-9,68.0,56.5,50.0,57.0,52.3,48.0,96,87,66,29.44,29.32,0,0,0,0.00
2013-6-10,67.0,56.1,50.0,54.0,51.2,48.0,95,84,62,29.51,29.42,0,0,0,0.00
2013-6-11,71.0,57.8,51.0,57.0,52.6,50.0,97,85,60,29.53,29.47,0,0,0,0.00